Portada
METAR-TAF:

METAR-TAF

Aeropuertos :

Salamanca, España

Aeropuerto de Salamanca

latitud: 40-57N, longitud: 005-30W, altitud: 793 m

Observación

El informe se hizo hace 20 minutos, a las 18:00 UTC
Viento 14 kt del oeste-suroeste
Temperatura 31°C
Humedad 21%
Presión 1020 hPa
Visibilidad 10 km o más
sin nubes por debajo de 1500 m y sin presencia de cumulonimbus.

METAR: LESA 221800Z 25014KT CAVOK 31/06 Q1020

Hora: 20:20 (18:20 UTC)

Pronóstico

El informe se hizo hace 1 hora y 20 minutos, a las 17:00 UTC
Pronóstico válido del 22 a las 18 UTC al 23 a las 18 UTC
Viento 12 kt del oeste
Visibilidad 10 km o más
sin nubes por debajo de 1500 m y sin presencia de cumulonimbus.
Evolucionando progresivamente
del 22 a las 20 UTC al 22 a las 22 UTC
Viento 5 kt con dirección variable

TAF: LESA 221700Z 2218/2318 26012KT CAVOK TX33/2315Z TN15/2306Z BECMG 2220/2222 VRB05KT

Observaciones y pronósticos meteorológicos de más de 4000 aeropuertos (mensajes METAR y TAF).

Los puntos amarillos y rojos representan las estaciones disponibles.

Ponga el ratón en el punto deseado para ver el nombre de la estación.

Haga clic para ver las observaciones y los pronósticos meteorológicos.

Para cambiar el mapa : haga clic en los botones verdes con una cruz de color negro para hacer un zoom, en el botón verde con un guión para alejar o en las flechas verdes para mapas adyacentes.


METAR-TAF: